createdAt,value
2018-10-17T00:02:17.158Z,101574.31
2018-10-17T00:05:21.476Z,101576.05
2018-10-17T00:08:25.782Z,101573.83
2018-10-17T00:11:30.121Z,101569.91
2018-10-17T00:14:34.425Z,101572.58
2018-10-17T00:17:38.728Z,101571.76
2018-10-17T00:20:43.096Z,101568.29
2018-10-17T00:23:47.354Z,101563.55
2018-10-17T00:26:51.702Z,101567.89
2018-10-17T00:29:56.011Z,101571.43
2018-10-17T00:33:00.332Z,101567.52
2018-10-17T00:36:04.661Z,101570.59
2018-10-17T00:39:11.570Z,101574.99
2018-10-17T00:42:15.844Z,101564.98
2018-10-17T00:45:20.174Z,101564.08
2018-10-17T00:48:24.548Z,101557.55
2018-10-17T00:51:28.831Z,101558.47
2018-10-17T00:54:33.108Z,101554.55
2018-10-17T00:57:37.484Z,101556.72
2018-10-17T01:00:41.797Z,101562.86
2018-10-17T01:03:52.802Z,101558.94
2018-10-17T01:06:57.741Z,101553.25
2018-10-17T01:10:02.015Z,101549.77
2018-10-17T01:13:08.135Z,101553.23
2018-10-17T01:16:12.345Z,101546.63
2018-10-17T01:19:16.707Z,101544.03
2018-10-17T01:22:20.973Z,101542.28
2018-10-17T01:25:25.223Z,101538.70
2018-10-17T01:28:29.564Z,101531.64
2018-10-17T01:31:33.840Z,101534.69
2018-10-17T01:34:38.165Z,101533.33
2018-10-17T01:37:42.505Z,101538.89
2018-10-17T01:40:46.831Z,101529.27
2018-10-17T01:43:51.073Z,101535.29
2018-10-17T01:46:55.369Z,101534.80
2018-10-17T01:49:59.672Z,101536.88
2018-10-17T01:53:04.038Z,101531.66
2018-10-17T01:56:08.335Z,101526.06
2018-10-17T01:59:12.680Z,101526.98
2018-10-17T02:02:16.946Z,101527.03
2018-10-17T02:05:21.291Z,101525.34
2018-10-17T02:08:25.645Z,101527.14
2018-10-17T02:11:30.471Z,101527.58
2018-10-17T02:14:34.793Z,101522.84
2018-10-17T02:17:39.081Z,101526.33
2018-10-17T02:20:43.391Z,101520.72
2018-10-17T02:23:47.755Z,101518.21
2018-10-17T02:26:52.543Z,101518.21
2018-10-17T02:29:56.911Z,101518.70
2018-10-17T02:33:01.196Z,101517.10
2018-10-17T02:36:05.877Z,101517.19
2018-10-17T02:39:11.019Z,101522.52
2018-10-17T02:42:15.281Z,101515.61
2018-10-17T02:45:19.600Z,101519.17
2018-10-17T02:48:24.750Z,101520.92
2018-10-17T02:51:29.092Z,101519.22
2018-10-17T02:54:33.522Z,101521.88
2018-10-17T02:57:38.455Z,101522.80
2018-10-17T03:00:42.751Z,101528.06
2018-10-17T03:03:47.084Z,101525.93
2018-10-17T03:06:51.444Z,101522.84
2018-10-17T03:09:55.764Z,101526.38
2018-10-17T03:13:00.081Z,101524.16
2018-10-17T03:16:04.523Z,101522.02
2018-10-17T03:19:09.636Z,101521.15
2018-10-17T03:22:13.856Z,101527.24
2018-10-17T03:25:18.227Z,101523.76
2018-10-17T03:28:22.421Z,101522.98
2018-10-17T03:31:26.836Z,101524.69
2018-10-17T03:34:31.368Z,101522.55
2018-10-17T03:37:36.113Z,101526.03
2018-10-17T03:40:40.989Z,101520.28
2018-10-17T03:43:45.284Z,101525.93
2018-10-17T03:46:49.566Z,101530.23
2018-10-17T03:49:54.014Z,101530.67
2018-10-17T03:52:58.262Z,101531.07
2018-10-17T03:56:02.627Z,101529.75
2018-10-17T03:59:07.928Z,101527.10
2018-10-17T04:02:12.245Z,101528.36
2018-10-17T04:05:17.236Z,101523.52
2018-10-17T04:08:21.549Z,101530.45
2018-10-17T04:11:26.081Z,101521.73
2018-10-17T04:14:30.447Z,101521.73
2018-10-17T04:17:34.893Z,101526.96
2018-10-17T04:20:39.182Z,101528.79
2018-10-17T04:23:44.280Z,101529.22
2018-10-17T04:26:48.906Z,101523.48
2018-10-17T04:29:56.147Z,101524.30
2018-10-17T04:33:00.429Z,101525.98
2018-10-17T04:36:04.786Z,101517.63
2018-10-17T04:39:11.575Z,101515.39
2018-10-17T04:42:15.887Z,101507.56
2018-10-17T04:45:20.238Z,101505.75
2018-10-17T04:48:24.558Z,101509.27
2018-10-17T04:51:28.899Z,101508.36
2018-10-17T04:54:33.165Z,101510.10
2018-10-17T04:57:37.485Z,101508.80
2018-10-17T05:00:41.835Z,101513.57
2018-10-17T05:03:46.108Z,101510.06
2018-10-17T05:06:50.500Z,101510.05
2018-10-17T05:09:54.690Z,101520.44
2018-10-17T05:12:59.068Z,101515.60
2018-10-17T05:16:04.771Z,101519.84
2018-10-17T05:19:10.034Z,101525.45
2018-10-17T05:22:14.306Z,101521.02
2018-10-17T05:25:18.645Z,101529.64
2018-10-17T05:28:23.009Z,101520.41
2018-10-17T05:31:27.280Z,101529.05
2018-10-17T05:34:31.656Z,101533.78
2018-10-17T05:37:36.102Z,101535.04
2018-10-17T05:40:40.323Z,101542.04
2018-10-17T05:43:44.591Z,101546.78
2018-10-17T05:46:49.083Z,101549.71
2018-10-17T05:49:53.402Z,101549.20
2018-10-17T05:52:57.693Z,101540.36
2018-10-17T05:56:02.063Z,101543.94
2018-10-17T05:59:06.417Z,101546.13
2018-10-17T06:02:13.559Z,101552.63
2018-10-17T06:05:17.781Z,101552.16
2018-10-17T06:08:22.125Z,101548.73
2018-10-17T06:11:26.419Z,101554.42
2018-10-17T06:14:30.744Z,101557.03
2018-10-17T06:17:35.038Z,101558.84
2018-10-17T06:20:39.389Z,101557.53
2018-10-17T06:23:43.709Z,101569.26
2018-10-17T06:26:48.606Z,101561.45
2018-10-17T06:29:53.445Z,101554.04
2018-10-17T06:32:57.787Z,101565.78
2018-10-17T06:36:03.126Z,101564.86
2018-10-17T06:39:10.100Z,101566.60
2018-10-17T06:42:14.380Z,101567.91
2018-10-17T06:45:20.577Z,101563.61
2018-10-17T06:48:25.657Z,101566.71
2018-10-17T06:51:30.038Z,101572.41
2018-10-17T06:54:34.665Z,101578.61
2018-10-17T06:57:38.925Z,101581.34
2018-10-17T07:00:43.269Z,101588.17
2018-10-17T07:03:47.561Z,101592.10
2018-10-17T07:06:51.953Z,101586.97
2018-10-17T07:09:56.238Z,101578.28
2018-10-17T07:13:00.628Z,101579.63
2018-10-17T07:16:05.040Z,101579.73
2018-10-17T07:19:09.459Z,101576.80
2018-10-17T07:22:13.825Z,101575.24
2018-10-17T07:25:18.111Z,101568.86
2018-10-17T07:28:22.404Z,101569.84
2018-10-17T07:31:27.262Z,101573.95
2018-10-17T07:34:31.618Z,101582.41
2018-10-17T07:37:35.945Z,101584.30
2018-10-17T07:40:40.242Z,101576.68
2018-10-17T07:43:44.522Z,101571.23
2018-10-17T07:46:48.792Z,101569.27
2018-10-17T07:49:53.108Z,101572.09
2018-10-17T07:52:57.943Z,101572.37
2018-10-17T07:56:02.527Z,101574.38
2018-10-17T07:59:06.933Z,101571.10
2018-10-17T08:02:11.225Z,101575.27
2018-10-17T08:05:15.524Z,101571.13
2018-10-17T08:08:19.844Z,101573.91
2018-10-17T08:11:24.152Z,101576.70
2018-10-17T08:14:29.403Z,101579.41
2018-10-17T08:17:33.776Z,101584.30
2018-10-17T08:20:38.091Z,101578.29
2018-10-17T08:23:42.387Z,101577.52
2018-10-17T08:26:46.726Z,101582.37
2018-10-17T08:29:51.031Z,101586.41
2018-10-17T08:32:55.453Z,101580.84
2018-10-17T08:35:59.975Z,101587.48
2018-10-17T08:39:05.790Z,101583.22
2018-10-17T08:42:11.791Z,101582.74
2018-10-17T08:45:16.154Z,101581.48
2018-10-17T08:48:20.457Z,101583.22
2018-10-17T08:51:24.769Z,101588.02
2018-10-17T08:54:29.096Z,101595.50
2018-10-17T08:57:33.429Z,101597.77
2018-10-17T09:04:13.385Z,101596.61
2018-10-17T09:07:17.819Z,101593.70
2018-10-17T09:10:22.107Z,101598.20
2018-10-17T09:13:26.556Z,101593.48
2018-10-17T09:16:30.977Z,101594.84
2018-10-17T09:19:35.501Z,101596.20
2018-10-17T09:22:39.700Z,101597.97
2018-10-17T09:25:44.010Z,101591.02
2018-10-17T09:28:48.189Z,101590.17
2018-10-17T09:31:52.478Z,101586.66
2018-10-17T09:34:56.781Z,101589.72
2018-10-17T09:38:01.152Z,101583.13
2018-10-17T09:41:05.421Z,101588.81
2018-10-17T09:44:09.757Z,101589.70
2018-10-17T09:47:14.077Z,101582.64
2018-10-17T09:50:18.377Z,101581.33
2018-10-17T09:53:22.847Z,101572.97
2018-10-17T09:56:27.078Z,101586.55
2018-10-17T09:59:31.401Z,101585.66
2018-10-17T10:02:35.719Z,101579.95
2018-10-17T10:05:39.987Z,101579.50
2018-10-17T10:08:44.291Z,101581.23
2018-10-17T10:11:48.518Z,101575.47
2018-10-17T10:14:52.870Z,101575.03
2018-10-17T10:17:57.376Z,101574.55
2018-10-17T10:21:01.734Z,101575.42
2018-10-17T10:24:06.126Z,101579.80
2018-10-17T10:27:10.476Z,101568.32
2018-10-17T10:30:14.897Z,101566.03
2018-10-17T10:33:19.180Z,101561.56
2018-10-17T10:36:23.772Z,101559.70
2018-10-17T10:39:28.071Z,101563.19
2018-10-17T10:42:32.380Z,101561.77
2018-10-17T10:45:36.774Z,101563.86
2018-10-17T10:48:41.117Z,101567.75
2018-10-17T10:51:45.541Z,101559.30
2018-10-17T10:54:49.775Z,101557.46
2018-10-17T10:57:54.040Z,101560.51
2018-10-17T11:00:58.323Z,101565.30
2018-10-17T11:04:04.677Z,101552.91
2018-10-17T11:07:09.153Z,101555.02
2018-10-17T11:10:13.755Z,101555.34
2018-10-17T11:13:18.336Z,101552.56
2018-10-17T11:16:23.060Z,101557.19
2018-10-17T11:19:27.656Z,101550.89
2018-10-17T11:22:31.931Z,101552.61
2018-10-17T11:25:36.329Z,101544.18
2018-10-17T11:28:40.677Z,101549.52
2018-10-17T11:31:44.925Z,101546.11
2018-10-17T11:34:49.197Z,101551.95
2018-10-17T11:37:53.630Z,101549.27
2018-10-17T11:40:57.902Z,101552.36
2018-10-17T11:44:02.165Z,101549.32
2018-10-17T11:47:06.621Z,101552.31
2018-10-17T11:50:12.358Z,101546.11
2018-10-17T11:53:16.723Z,101551.05
2018-10-17T11:56:21.064Z,101544.94
2018-10-17T11:59:25.580Z,101548.81
2018-10-17T12:02:29.867Z,101550.13
2018-10-17T12:05:34.507Z,101548.59
2018-10-17T12:08:38.472Z,101546.81
2018-10-17T12:11:42.820Z,101548.14
2018-10-17T12:14:47.388Z,101549.97
2018-10-17T12:17:51.731Z,101552.70
2018-10-17T12:20:56.022Z,101554.02
2018-10-17T12:24:00.537Z,101552.23
2018-10-17T12:27:05.015Z,101548.27
2018-10-17T12:30:13.019Z,101556.57
2018-10-17T12:33:17.348Z,101559.34
2018-10-17T12:36:21.825Z,101554.69
2018-10-17T12:39:26.272Z,101549.95
2018-10-17T12:42:31.406Z,101555.77
2018-10-17T12:45:35.858Z,101555.30
2018-10-17T12:48:40.233Z,101557.53
2018-10-17T12:51:44.671Z,101559.30
2018-10-17T12:54:49.070Z,101556.59
2018-10-17T12:57:53.586Z,101564.46
2018-10-17T13:00:57.952Z,101552.05
2018-10-17T13:04:02.356Z,101557.16
2018-10-17T13:07:07.002Z,101556.61
2018-10-17T13:10:12.163Z,101549.61
2018-10-17T13:13:16.494Z,101547.55
2018-10-17T13:16:20.721Z,101550.36
2018-10-17T13:19:25.525Z,101555.31
2018-10-17T13:22:29.818Z,101551.95
2018-10-17T13:25:34.772Z,101550.25
2018-10-17T13:28:39.047Z,101548.06
2018-10-17T13:31:43.338Z,101551.67
2018-10-17T13:34:47.692Z,101548.64
2018-10-17T13:37:52.029Z,101551.80
2018-10-17T13:40:56.310Z,101553.65
2018-10-17T13:44:00.655Z,101554.17
2018-10-17T13:47:06.012Z,101556.41
2018-10-17T13:50:10.348Z,101549.00
2018-10-17T13:53:15.143Z,101546.81
2018-10-17T13:56:19.289Z,101541.54
2018-10-17T13:59:23.686Z,101538.91
2018-10-17T14:02:27.868Z,101541.53
2018-10-17T14:05:32.203Z,101544.62
2018-10-17T14:08:36.545Z,101548.64
2018-10-17T14:11:41.926Z,101549.11
2018-10-17T14:14:46.149Z,101544.74
2018-10-17T14:17:50.526Z,101551.38
2018-10-17T14:20:54.943Z,101549.64
2018-10-17T14:23:59.736Z,101551.44
2018-10-17T14:27:04.163Z,101557.15
2018-10-17T14:30:09.073Z,101552.81
2018-10-17T14:33:13.477Z,101555.92
2018-10-17T14:36:17.808Z,101558.98
2018-10-17T14:39:22.153Z,101563.78
2018-10-17T14:42:26.392Z,101561.17
2018-10-17T14:45:30.744Z,101570.86
2018-10-17T14:48:35.011Z,101572.19
2018-10-17T14:51:39.544Z,101573.94
2018-10-17T14:54:43.891Z,101569.55
2018-10-17T14:57:48.173Z,101570.42
2018-10-17T15:00:52.578Z,101575.70
2018-10-17T15:03:56.866Z,101578.78
2018-10-17T15:07:01.173Z,101577.45
2018-10-17T15:10:05.815Z,101577.88
2018-10-17T15:13:10.136Z,101573.50
2018-10-17T15:16:14.518Z,101577.45
2018-10-17T15:19:18.855Z,101585.79
2018-10-17T15:22:23.268Z,101579.19
2018-10-17T15:25:27.605Z,101583.58
2018-10-17T15:28:31.941Z,101584.45
2018-10-17T15:31:36.242Z,101584.84
2018-10-17T15:34:40.555Z,101583.97
2018-10-17T15:37:44.902Z,101592.73
2018-10-17T15:40:49.347Z,101591.83
2018-10-17T15:43:53.892Z,101591.81
2018-10-17T15:46:58.157Z,101587.44
2018-10-17T15:50:02.476Z,101586.97
2018-10-17T15:53:06.922Z,101585.66
2018-10-17T15:56:11.105Z,101592.19
2018-10-17T15:59:15.433Z,101595.23
2018-10-17T16:02:19.861Z,101590.81
2018-10-17T16:05:24.187Z,101585.97
2018-10-17T16:08:28.594Z,101585.06
2018-10-17T16:11:32.903Z,101587.61
2018-10-17T16:14:37.316Z,101578.38
2018-10-17T16:17:41.751Z,101581.31
2018-10-17T16:20:46.096Z,101581.28
2018-10-17T16:23:50.513Z,101584.27
2018-10-17T16:26:54.934Z,101589.45
2018-10-17T16:29:59.525Z,101596.80
2018-10-17T16:33:03.754Z,101598.91
2018-10-17T16:36:08.123Z,101598.00
2018-10-17T16:39:13.952Z,101599.27
2018-10-17T16:42:18.341Z,101602.72
2018-10-17T16:45:22.684Z,101603.52
2018-10-17T16:48:26.990Z,101605.63
2018-10-17T16:51:32.014Z,101609.07
2018-10-17T16:54:36.361Z,101612.52
2018-10-17T16:57:40.670Z,101616.83
2018-10-17T17:00:46.147Z,101616.80
2018-10-17T17:03:50.399Z,101616.28
2018-10-17T17:06:54.662Z,101624.98
2018-10-17T17:09:59.709Z,101626.64
2018-10-17T17:13:04.027Z,101627.92
2018-10-17T17:16:08.349Z,101633.13
2018-10-17T17:19:12.649Z,101632.25
2018-10-17T17:22:17.091Z,101634.88
2018-10-17T17:25:21.403Z,101646.20
2018-10-17T17:28:25.747Z,101639.62
2018-10-17T17:31:30.015Z,101646.14
2018-10-17T17:34:35.604Z,101651.34
2018-10-17T17:37:39.942Z,101649.56
2018-10-17T17:40:44.329Z,101656.48
2018-10-17T17:43:48.568Z,101652.12
2018-10-17T17:46:52.879Z,101655.11
2018-10-17T17:49:57.167Z,101656.82
2018-10-17T17:53:01.698Z,101655.91
2018-10-17T17:56:06.188Z,101657.19
2018-10-17T17:59:10.594Z,101658.90
2018-10-17T18:02:14.963Z,101657.55
2018-10-17T18:05:19.340Z,101660.17
2018-10-17T18:08:23.715Z,101656.17
2018-10-17T18:11:28.261Z,101664.87
2018-10-17T18:14:32.624Z,101668.32
2018-10-17T18:17:38.817Z,101669.52
2018-10-17T18:20:43.182Z,101671.59
2018-10-17T18:23:47.589Z,101675.44
2018-10-17T18:26:51.906Z,101677.94
2018-10-17T18:29:57.045Z,101678.73
2018-10-17T18:33:01.512Z,101680.31
2018-10-17T18:36:06.219Z,101690.25
2018-10-17T18:39:10.646Z,101692.34
2018-10-17T18:42:15.848Z,101694.52
2018-10-17T18:45:20.177Z,101698.05
2018-10-17T18:48:25.179Z,101698.05
2018-10-17T18:51:29.543Z,101693.70
2018-10-17T18:54:33.998Z,101698.09
2018-10-17T18:57:38.369Z,101705.55
2018-10-17T19:00:42.830Z,101699.41
2018-10-17T19:03:47.157Z,101698.10
2018-10-17T19:06:51.496Z,101703.33
2018-10-17T19:09:55.925Z,101708.08
2018-10-17T19:13:00.334Z,101711.56
2018-10-17T19:16:04.737Z,101712.44
2018-10-17T19:19:09.071Z,101712.88
2018-10-17T19:22:13.421Z,101714.19
2018-10-17T19:25:17.740Z,101717.63
2018-10-17T19:28:22.140Z,101714.14
2018-10-17T19:31:26.527Z,101721.00
2018-10-17T19:34:30.881Z,101721.77
2018-10-17T19:37:35.793Z,101720.52
2018-10-17T19:40:40.118Z,101729.14
2018-10-17T19:43:44.555Z,101730.78
2018-10-17T19:46:48.981Z,101732.09
2018-10-17T19:49:53.309Z,101739.84
2018-10-17T19:52:57.634Z,101738.55
2018-10-17T19:56:02.140Z,101741.63
2018-10-17T19:59:06.818Z,101745.16
2018-10-17T20:02:12.156Z,101747.77
2018-10-17T20:05:16.449Z,101749.97
2018-10-17T20:08:20.875Z,101753.02
2018-10-17T20:11:25.193Z,101754.75
2018-10-17T20:14:29.596Z,101750.30
2018-10-17T20:17:34.014Z,101757.66
2018-10-17T20:20:38.313Z,101750.64
2018-10-17T20:23:42.688Z,101760.56
2018-10-17T20:26:47.134Z,101754.85
2018-10-17T20:29:52.285Z,101756.55
2018-10-17T20:32:57.304Z,101762.25
2018-10-17T20:36:01.644Z,101757.47
2018-10-17T20:39:12.650Z,101747.45
2018-10-17T20:42:16.993Z,101748.66
2018-10-17T20:45:21.442Z,101755.08
2018-10-17T20:48:26.803Z,101752.75
2018-10-17T20:51:31.894Z,101754.78
2018-10-17T20:54:37.680Z,101752.44
2018-10-17T20:57:42.005Z,101761.00
2018-10-17T21:00:46.397Z,101757.02
2018-10-17T21:03:50.721Z,101760.78
2018-10-17T21:06:55.075Z,101756.69
2018-10-17T21:09:59.446Z,101755.66
2018-10-17T21:13:03.804Z,101759.46
2018-10-17T21:16:08.203Z,101753.30
2018-10-17T21:19:12.559Z,101762.37
2018-10-17T21:22:17.172Z,101754.39
2018-10-17T21:25:21.858Z,101757.80
2018-10-17T21:28:26.304Z,101761.66
2018-10-17T21:31:30.848Z,101757.20
2018-10-17T21:34:35.146Z,101758.91
2018-10-17T21:37:39.551Z,101761.07
2018-10-17T21:40:43.784Z,101756.28
2018-10-17T21:43:48.197Z,101758.89
2018-10-17T21:46:52.649Z,101756.28
2018-10-17T21:49:56.955Z,101747.53
2018-10-17T21:53:01.390Z,101747.91
2018-10-17T21:56:05.837Z,101750.02
2018-10-17T21:59:10.169Z,101747.34
2018-10-17T22:02:14.738Z,101742.95
2018-10-17T22:05:18.997Z,101745.55
2018-10-17T22:08:23.301Z,101743.27
2018-10-17T22:11:27.684Z,101743.70
2018-10-17T22:14:32.044Z,101739.72
2018-10-17T22:17:36.400Z,101740.09
2018-10-17T22:20:41.612Z,101740.03
2018-10-17T22:23:45.990Z,101746.55
2018-10-17T22:26:50.247Z,101745.56
2018-10-17T22:29:54.693Z,101745.44
2018-10-17T22:32:59.931Z,101748.86
2018-10-17T22:36:04.917Z,101747.48
2018-10-17T22:39:13.268Z,101750.84
2018-10-17T22:42:17.552Z,101756.87
2018-10-17T22:45:21.997Z,101759.45
2018-10-17T22:48:26.372Z,101758.91
2018-10-17T22:51:30.804Z,101752.81
2018-10-17T22:54:35.225Z,101753.97
2018-10-17T22:57:41.689Z,101751.37
2018-10-17T23:00:45.991Z,101756.10
2018-10-17T23:03:50.418Z,101756.53
2018-10-17T23:06:54.702Z,101753.92
2018-10-17T23:09:59.000Z,101751.77
2018-10-17T23:13:04.597Z,101755.28
2018-10-17T23:16:08.872Z,101753.55
2018-10-17T23:19:13.262Z,101750.02
2018-10-17T23:22:17.599Z,101755.30
2018-10-17T23:25:21.908Z,101757.53
2018-10-17T23:46:17.360Z,101768.59
2018-10-17T23:49:22.648Z,101768.48
2018-10-17T23:52:27.047Z,101766.73
